Latest Weather Observations for Ballina

IDN60801

Issued at 10:03 am EST Saturday 2 July 2016 (issued every 30 minutes, with the page automatically refreshed every 10 minutes)

About weather observations | Map of weather stations | Latest weather observations for NSW | Other Formats
Station Details ID: 058198 Name: BALLINA AIRPORT AWS Lat: -28.84 Lon: 153.56 Height: 1.3 m
Data from the previous 72 hours. | See also: Recent months at Ballina
Date/Time
EST
Temp
°C
App
Temp
°C
Dew
Point
°C
Rel
Hum
%
Delta-T
°C
Wind Press
QNH
hPa
Press
MSL
hPa
Rain since
9am
mm
Dir  Spd
km/h
Gust
km/h
Spd
kts
Gust
kts
02/10:00am 16.4 11.9 4.1 44 5.7 WSW 17 22 9 12 1024.8 1024.8 0.0
02/09:30am 15.5 11.3 3.9 46 5.3 WSW 15 19 8 10 1025.1 1025.1 0.0
02/09:00am 14.4 10.3 4.4 51 4.6 W 15 19 8 10 1024.9 1024.9 0.0
02/08:30am 12.8 9.4 5.7 62 3.3 W 13 15 7 8 1024.7 1024.7 0.0
02/08:00am 10.7 7.7 5.9 72 2.2 W 11 13 6 7 1024.4 1024.4 0.0
02/07:30am 6.8 5.4 5.3 90 0.7 W 2 7 1 4 1024.2 1024.2 0.0
02/07:00am 4.9 3.5 3.7 92 0.5 CALM 0 0 0 0 1023.8 1023.8 0.0
02/06:30am 4.8 3.4 3.6 92 0.5 CALM 0 0 0 0 1023.3 1023.3 0.0
02/06:00am 6.0 3.0 2.1 76 1.6 WSW 7 9 4 5 1023.0 1023.0 0.0
02/05:30am 8.1 4.6 3.6 73 1.9 WSW 11 13 6 7 1022.7 1022.7 0.0
02/05:00am 6.0 3.3 3.5 84 1.0 W 7 11 4 6 1022.4 1022.4 0.0
02/04:30am 7.4 3.9 3.5 76 1.7 W 11 13 6 7 1022.0 1022.0 0.0
02/04:00am 8.8 5.2 3.2 68 2.4 W 11 13 6 7 1021.8 1021.8 0.0
02/03:30am 8.7 5.2 3.7 71 2.2 W 11 13 6 7 1021.8 1021.8 0.0
02/03:00am 7.2 5.2 4.3 82 1.2 W 4 9 2 5 1021.7 1021.7 0.0
02/02:30am 8.2 4.7 3.7 73 1.9 W 11 13 6 7 1021.6 1021.6 0.0
02/02:00am 8.6 5.2 3.8 72 2.1 W 11 13 6 7 1021.5 1021.5 0.0
02/01:30am 8.1 5.6 4.9 80 1.4 W 7 9 4 5 1021.5 1021.5 0.0
02/01:00am 8.9 5.7 5.3 78 1.6 W 11 11 6 6 1021.3 1021.3 0.0
02/12:30am 7.9 4.8 3.8 75 1.8 WSW 9 11 5 6 1021.3 1021.3 0.0
02/12:00am 7.8 4.6 4.9 82 1.3 W 11 11 6 6 1021.3 1021.3 0.0
 
Date/Time
EST
Temp
°C
App
Temp
°C
Dew
Point
°C
Rel
Hum
%
Delta-T
°C
Wind Press
QNH
hPa
Press
MSL
hPa
Rain since
9am
mm
Dir  Spd
km/h
Gust
km/h
Spd
kts
Gust
kts
01/11:30pm 8.7 6.4 4.7 76 1.8 WSW 6 9 3 5 1021.3 1021.3 0.0
01/11:00pm 9.6 8.3 4.0 68 2.4 CALM 0 0 0 0 1021.4 1021.4 0.0
01/10:30pm 11.8 9.2 4.1 59 3.5 SW 7 9 4 5 1021.0 1021.0 0.0
01/10:00pm 12.9 9.5 3.8 54 4.1 WSW 11 13 6 7 1020.9 1020.9 0.0
01/09:30pm 12.8 9.0 4.0 55 4.0 W 13 17 7 9 1020.6 1020.6 0.0
01/09:00pm 13.3 9.1 3.9 53 4.2 W 15 19 8 10 1020.3 1020.3 0.0
01/08:30pm 13.9 9.3 3.7 50 4.6 W 17 22 9 12 1019.9 1019.9 0.0
01/08:00pm 14.3 10.1 3.7 49 4.8 W 15 24 8 13 1019.5 1019.5 0.0
01/07:30pm 14.9 10.3 3.7 47 5.1 W 17 22 9 12 1019.0 1019.0 0.0
01/07:00pm 15.8 10.9 3.9 45 5.5 WNW 19 24 10 13 1018.6 1018.6 0.0
01/06:30pm 16.0 11.9 4.1 45 5.5 WNW 15 19 8 10 1018.3 1018.3 0.0
01/06:00pm 15.6 11.2 4.6 48 5.1 WNW 17 22 9 12 1017.6 1017.6 0.0
01/05:30pm 14.4 12.0 7.0 61 3.6 WNW 9 11 5 6 1017.4 1017.4 0.0
01/05:00pm 16.4 13.5 6.5 52 4.8 NW 11 13 6 7 1016.8 1016.8 0.0
01/04:30pm 19.3 16.3 6.1 42 6.5 WNW 11 15 6 8 1016.5 1016.5 0.0
01/04:00pm 20.6 17.9 5.4 37 7.5 NW 9 15 5 8 1016.2 1016.2 0.0
01/03:30pm 21.0 17.9 5.4 36 7.7 NW 11 17 6 9 1016.0 1016.0 0.0
01/03:00pm 20.9 16.9 4.9 35 7.8 NNW 15 20 8 11 1016.0 1016.0 0.0
01/02:30pm 20.8 16.4 4.8 35 7.8 NW 17 26 9 14 1016.2 1016.2 0.0
01/02:00pm 20.7 15.6 4.3 34 7.9 W 20 28 11 15 1016.5 1016.5 0.0
01/01:30pm 21.2 16.8 4.7 34 8.1 WNW 17 20 9 11 1016.6 1016.6 0.0
01/01:00pm 20.7 16.3 4.7 35 7.8 WNW 17 22 9 12 1016.9 1016.9 0.0
01/12:30pm 20.2 13.6 4.3 35 7.7 W 28 39 15 21 1017.0 1017.0 0.0
01/12:00pm 20.2 15.1 5.8 39 7.1 WNW 22 32 12 17 1017.2 1017.2 0.0
01/11:30am 19.9 15.3 5.5 39 7.1 WNW 19 33 10 18 1017.4 1017.4 0.0
01/11:00am 19.3 13.4 5.7 41 6.7 W 26 39 14 21 1018.0 1018.0 0.0
01/10:30am 18.5 13.2 5.0 41 6.5 WNW 22 41 12 22 1018.6 1018.6 0.0
01/10:00am 18.1 13.2 4.3 40 6.5 W 19 28 10 15 1019.1 1019.1 0.0
01/09:30am 18.0 13.5 5.9 45 5.9 WNW 19 30 10 16 1019.2 1019.2 0.0
01/09:00am 17.1 13.5 6.9 51 5.0 WNW 15 24 8 13 1019.3 1019.3 0.0
01/08:30am 16.0 14.0 8.7 62 3.7 NNW 9 13 5 7 1019.4 1019.4 0.0
01/08:00am 14.6 12.5 9.6 72 2.6 N 11 15 6 8 1019.1 1019.1 0.0
01/07:30am 13.0 11.5 10.4 84 1.3 NNW 9 13 5 7 1019.0 1019.0 0.0
01/07:00am 9.8 8.0 9.5 98 0.1 NNE 9 11 5 6 1018.9 1018.9 0.0
01/06:30am 8.8 8.4 8.2 96 0.3 CALM 0 0 0 0 1018.7 1018.7 0.0
01/06:00am 10.7 10.9 10.5 99 0.1 CALM 0 6 0 3 1018.5 1018.5 0.0
01/05:30am 9.8 8.1 9.7 99 0.0 NW 9 9 5 5 1018.4 1018.4 0.0
01/05:00am 9.3 7.4 9.0 98 0.1 NW 9 13 5 7 1018.2 1018.2 0.0
01/04:45am 8.4 6.8 8.0 97 0.2 NNW 6 7 3 4 1018.0 1018.0 0.0
01/04:30am 8.5 7.3 8.2 98 0.1 N 4 9 2 5 1018.0 1018.0 0.0
01/04:00am 9.6 9.5 9.3 98 0.1 CALM 0 0 0 0 1017.9 1017.9 0.0
01/03:59am 9.7 9.6 9.4 98 0.1 CALM 0 0 0 0 1017.9 1017.9 0.0
01/03:45am 9.8 9.7 9.5 98 0.1 CALM 0 0 0 0 1017.9 1017.9 0.0
01/03:30am 9.5 9.3 9.0 97 0.2 CALM 0 0 0 0 1017.9 1017.9 0.0
01/03:09am 10.0 10.0 9.7 98 0.2 CALM 0 0 0 0 1018.1 1018.1 0.0
01/03:00am 10.4 10.4 9.8 96 0.3 CALM 0 0 0 0 1018.1 1018.1 0.0
01/02:46am 10.0 9.5 9.4 96 0.3 NNE 2 6 1 3 1018.1 1018.1 0.0
01/02:30am 10.4 10.3 9.6 95 0.4 CALM 0 0 0 0 1018.2 1018.2 0.0
01/02:26am 10.1 9.9 9.0 93 0.5 CALM 0 0 0 0 1018.2 1018.2 0.0
01/02:00am 11.7 12.0 10.8 94 0.5 CALM 0 0 0 0 1018.3 1018.3 0.0
01/01:30am 12.8 11.9 11.5 92 0.7 NNW 7 9 4 5 1018.6 1018.6 0.0
01/01:00am 14.4 13.7 12.1 86 1.2 NNW 7 9 4 5 1019.0 1019.0 0.0
01/12:30am 14.4 13.3 11.9 85 1.3 NNW 9 13 5 7 1019.0 1019.0 0.0
01/12:00am 14.5 13.4 11.8 84 1.4 N 9 11 5 6 1019.2 1019.2 0.0
 
Date/Time
EST
Temp
°C
App
Temp
°C
Dew
Point
°C
Rel
Hum
%
Delta-T
°C
Wind Press
QNH
hPa
Press
MSL
hPa
Rain since
9am
mm
Dir  Spd
km/h
Gust
km/h
Spd
kts
Gust
kts
30/11:30pm 14.3 13.6 12.0 86 1.2 N 7 9 4 5 1019.3 1019.3 0.0
30/11:00pm 14.1 13.3 11.6 85 1.3 NNW 7 7 4 4 1019.5 1019.5 0.0
30/10:30pm 15.6 14.8 11.8 78 2.1 N 7 9 4 5 1019.6 1019.6 0.0
30/10:00pm 16.2 14.9 12.4 78 2.1 NNW 11 15 6 8 1019.7 1019.7 0.0
30/09:30pm 16.2 14.5 12.6 79 2.0 N 13 19 7 10 1019.6 1019.6 0.0
30/09:00pm 15.7 14.8 12.5 81 1.8 N 9 13 5 7 1019.7 1019.7 0.0
30/08:30pm 15.5 14.2 12.6 83 1.6 N 11 13 6 7 1019.8 1019.8 0.0
30/08:00pm 15.0 14.1 12.5 85 1.4 N 9 11 5 6 1020.2 1020.2 0.0
30/07:30pm 15.5 14.6 12.6 83 1.6 N 9 15 5 8 1019.9 1019.9 0.0
30/07:00pm 15.2 14.3 12.7 85 1.4 N 9 11 5 6 1020.2 1020.2 0.0
30/06:30pm 15.7 14.8 12.6 82 1.7 N 9 13 5 7 1020.1 1020.1 0.0
30/06:00pm 16.0 15.0 12.4 79 2.0 N 9 13 5 7 1020.0 1020.0 0.0
30/05:30pm 16.3 15.2 12.1 76 2.3 NNE 9 13 5 7 1019.7 1019.7 0.0
30/05:00pm 16.8 15.6 11.7 72 2.8 NNE 9 13 5 7 1019.5 1019.5 0.0
30/04:30pm 17.9 16.3 11.7 67 3.4 NNE 11 17 6 9 1019.6 1019.6 0.0
30/04:00pm 18.5 16.1 11.3 63 3.9 NNE 15 20 8 11 1019.5 1019.5 0.0
30/03:30pm 19.1 15.8 11.7 62 4.1 NE 20 24 11 13 1019.5 1019.5 0.0
30/03:00pm 19.5 16.5 11.8 61 4.2 NE 19 24 10 13 1019.8 1019.8 0.0
30/02:30pm 19.9 16.8 10.3 54 5.2 NNE 17 24 9 13 1019.9 1019.9 0.0
30/02:00pm 20.2 18.2 11.4 57 4.8 ENE 13 19 7 10 1020.2 1020.2 0.0
30/01:30pm 19.2 17.1 11.0 59 4.5 E 13 17 7 9 1020.6 1020.6 0.0
30/01:00pm 20.8 19.0 8.1 44 6.6 NNE 7 13 4 7 1021.1 1021.1 0.0
30/12:30pm 20.4 18.3 9.6 50 5.8 NW 11 17 6 9 1021.7 1021.7 0.0
30/12:00pm 19.7 18.8 11.2 58 4.6 W 7 13 4 7 1022.3 1022.3 0.0
30/11:30am 19.4 18.3 10.7 57 4.7 WSW 7 15 4 8 1022.9 1022.9 0.0
30/11:00am 18.4 16.5 10.5 60 4.2 W 11 17 6 9 1023.4 1023.4 0.0
30/10:30am 17.7 15.8 10.6 63 3.8 WSW 11 17 6 9 1023.9 1023.9 0.0
30/10:00am 16.9 14.6 10.3 65 3.5 WSW 13 17 7 9 1024.1 1024.1 0.0
30/09:30am 15.9 13.7 10.7 71 2.8 W 13 19 7 10 1024.2 1024.2 0.0
30/09:00am 14.7 12.9 10.7 77 2.1 W 11 20 6 11 1024.3 1024.3 -
30/08:30am 13.1 11.6 10.6 85 1.3 W 9 11 5 6 1024.1 1024.1 -
30/08:00am 10.7 10.9 10.5 99 0.1 CALM 0 9 0 5 1023.9 1023.9 -
30/07:30am 8.1 7.6 8.0 99 0.0 CALM 0 0 0 0 1023.9 1023.9 -
30/07:00am 6.0 5.1 5.9 99 0.0 CALM 0 0 0 0 1023.6 1023.6 -
30/06:30am 6.3 5.4 6.2 99 0.0 CALM 0 0 0 0 1023.5 1023.5 -
30/06:08am 6.0 5.1 5.9 99 0.0 CALM 0 0 0 0 1023.4 1023.4 -
30/06:01am 5.7 4.7 5.6 99 0.0 CALM 0 0 0 0 1023.4 1023.4 -
30/06:00am 5.7 4.7 5.6 99 0.0 CALM 0 0 0 0 1023.4 1023.4 -
30/05:42am 6.0 5.1 5.9 99 0.0 CALM 0 0 0 0 1023.3 1023.3 -
30/05:30am 6.0 5.1 5.9 99 0.0 CALM 0 0 0 0 1023.3 1023.3 -
30/05:26am 5.9 4.9 5.8 99 0.0 CALM 0 0 0 0 1023.3 1023.3 -
30/05:00am 6.4 5.6 6.3 99 0.0 CALM 0 0 0 0 1023.3 1023.3 -
30/04:53am 6.7 5.5 6.6 99 0.0 W 2 6 1 3 1023.3 1023.3 -
30/04:45am 6.3 5.0 6.2 99 0.0 W 2 6 1 3 1023.3 1023.3 -
30/04:30am 6.1 5.2 6.0 99 0.0 CALM 0 0 0 0 1023.2 1023.2 -
30/04:00am 6.9 6.2 6.8 99 0.0 CALM 0 0 0 0 1023.4 1023.4 -
30/03:30am 6.1 5.2 6.0 99 0.0 CALM 0 0 0 0 1023.6 1023.6 -
30/03:06am 6.7 5.9 6.6 99 0.0 CALM 0 0 0 0 1023.8 1023.8 -
30/03:01am 6.9 6.2 6.8 99 0.0 CALM 0 0 0 0 1023.8 1023.8 -
30/03:00am 6.9 6.2 6.8 99 0.0 CALM 0 0 0 0 1023.8 1023.8 0.0
30/02:42am 6.7 5.9 6.6 99 0.0 CALM 0 0 0 0 1023.8 1023.8 -
30/02:35am 6.6 5.8 6.3 98 0.1 CALM 0 0 0 0 1023.8 1023.8 -
30/02:30am 6.3 5.4 6.0 98 0.1 CALM 0 0 0 0 1023.8 1023.8 -
30/02:01am 7.0 6.3 6.9 99 0.0 CALM 0 0 0 0 1024.0 1024.0 -
30/02:00am 6.9 6.2 6.8 99 0.0 CALM 0 0 0 0 1024.0 1024.0 -
30/01:51am 7.0 6.2 6.7 98 0.1 CALM 0 0 0 0 1024.2 1024.2 -
30/01:30am 6.8 6.0 6.5 98 0.1 CALM 0 0 0 0 1024.4 1024.4 -
30/01:05am 6.7 5.9 6.3 97 0.2 CALM 0 0 0 0 1024.6 1024.6 -
30/01:00am 6.5 5.6 6.2 98 0.1 CALM 0 0 0 0 1024.7 1024.7 -
30/12:56am 6.7 5.9 6.4 98 0.1 CALM 0 0 0 0 1024.7 1024.7 -
30/12:35am 7.3 6.6 7.0 98 0.1 CALM 0 0 0 0 1024.7 1024.7 -
30/12:30am 7.5 6.9 7.2 98 0.1 CALM 0 0 0 0 1024.7 1024.7 -
30/12:00am 7.3 6.6 6.9 97 0.2 CALM 0 0 0 0 1024.7 1024.7 -
 
Date/Time
EST
Temp
°C
App
Temp
°C
Dew
Point
°C
Rel
Hum
%
Delta-T
°C
Wind Press
QNH
hPa
Press
MSL
hPa
Rain since
9am
mm
Dir  Spd
km/h
Gust
km/h
Spd
kts
Gust
kts
29/11:49pm 7.6 7.0 7.2 97 0.2 CALM 0 0 0 0 1024.8 1024.8 -
29/11:30pm 7.4 6.7 7.0 97 0.2 CALM 0 0 0 0 1025.0 1025.0 -
29/11:29pm 7.3 6.6 6.9 97 0.2 CALM 0 0 0 0 1025.0 1025.0 -
29/11:15pm 7.5 6.8 7.1 97 0.2 CALM 0 0 0 0 1025.1 1025.1 -
29/11:00pm 7.9 7.3 7.5 97 0.2 CALM 0 0 0 0 1025.3 1025.3 -
29/10:30pm 7.8 7.2 7.4 97 0.2 CALM 0 0 0 0 1025.5 1025.5 -
29/10:22pm 7.7 7.0 7.1 96 0.3 CALM 0 0 0 0 1025.5 1025.5 -
29/10:00pm 7.9 7.3 7.3 96 0.3 CALM 0 0 0 0 1025.6 1025.6 -
29/09:30pm 7.8 7.0 6.7 93 0.5 CALM 0 0 0 0 1025.6 1025.6 -
29/09:26pm 8.3 7.7 7.4 94 0.4 CALM 0 0 0 0 1025.6 1025.6 -
29/09:03pm 9.5 9.2 8.7 95 0.4 CALM 0 0 0 0 1025.6 1025.6 -
29/09:00pm 9.4 9.1 8.5 94 0.4 CALM 0 0 0 0 1025.7 1025.7 0.0
29/08:30pm 9.0 8.4 7.5 90 0.7 CALM 0 0 0 0 1025.7 1025.7 -
29/08:00pm 10.7 9.4 9.3 91 0.7 W 6 7 3 4 1026.0 1026.0 -
29/07:30pm 10.9 9.0 9.0 88 0.9 W 9 11 5 6 1026.0 1026.0 -
29/07:00pm 11.9 10.2 9.8 87 1.1 W 9 11 5 6 1025.8 1025.8 -
29/06:30pm 11.4 9.5 9.1 86 1.1 WSW 9 13 5 7 1025.7 1025.7 -
29/06:00pm 12.6 11.0 10.3 86 1.2 W 9 9 5 5 1025.4 1025.4 -
29/05:30pm 14.0 12.3 9.8 76 2.2 SW 9 11 5 6 1025.1 1025.1 -
29/05:00pm 15.9 14.3 10.2 69 3.0 SW 9 13 5 7 1025.0 1025.0 -
29/04:30pm 16.8 14.1 10.2 65 3.5 SSW 15 20 8 11 1025.0 1025.0 -
29/04:00pm 17.4 13.9 10.1 62 3.8 SSW 19 28 10 15 1024.9 1024.9 -
29/03:30pm 17.8 14.2 9.9 60 4.2 SSW 19 28 10 15 1024.8 1024.8 -
29/03:00pm 17.9 14.1 9.8 59 4.3 SSW 20 30 11 16 1024.6 1024.6 -
29/02:37pm 17.9 13.7 9.8 59 4.3 SSW 22 33 12 18 1024.4 1024.4 -
29/02:36pm 14.9 10.1 7.2 60 3.8 SSW 22 33 12 18 1011.1 1011.1 -
29/02:30pm 18.0 13.8 9.6 58 4.4 SSW 22 33 12 18 1024.4 1024.4 0.0
29/02:00pm 18.4 13.4 9.7 57 4.6 S 26 35 14 19 1024.3 1024.3 0.0
29/01:30pm 18.6 14.1 9.9 57 4.6 S 24 39 13 21 1024.3 1024.3 0.0
29/01:00pm 18.3 13.6 9.4 56 4.6 SSW 24 32 13 17 1024.6 1024.6 0.0
29/12:30pm 18.6 14.4 9.9 57 4.6 SSW 22 33 12 18 1025.1 1025.1 0.0
29/12:00pm 17.9 13.7 8.2 53 4.9 SW 20 32 11 17 1025.4 1025.4 0.0
29/11:30am 17.5 12.4 7.8 53 4.9 SW 24 33 13 18 1025.8 1025.8 0.0
29/11:00am 17.2 12.8 7.5 53 4.8 SW 20 33 11 18 1026.1 1026.1 0.0
29/10:30am 16.4 11.9 6.8 53 4.7 WSW 20 26 11 14 1026.5 1026.5 0.0

Other Formats:

Comma delimited format used in spreadsheet applications
http://www.bom.gov.au/fwo/IDN60801/IDN60801.94596.axf

JavaScript Object Notation format (JSON) in row-major order
http://www.bom.gov.au/fwo/IDN60801/IDN60801.94596.json